Time;durP1;ratioP1;P1;durP2;ratioP2;P2;SDS_P1;SDS_P2;PMS_P1;PMS_P2;Temp;Humidity;BMP_temperature;BMP_pressure;BME280_temperature;BME280_humidity;BME280_pressure;Samples;Min_cycle;Max_cycle;Signal;HPM_P1;HPM_P2
2023/08/23 00:00:51;;;;;;;3.33;2.30;;;19.30;99.90;;;19.76;100.00;101415.41;5156343;28;20133;-70
2023/08/23 00:03:23;;;;;;;2.95;2.05;;;19.30;99.90;;;19.73;100.00;101415.34;5159615;28;20446;-70
2023/08/23 00:05:56;;;;;;;3.00;2.10;;;19.30;99.90;;;19.69;100.00;101410.03;5163303;28;20062;-69
2023/08/23 00:08:28;;;;;;;3.55;2.30;;;19.30;99.90;;;19.66;100.00;101417.94;5163897;28;20068;-69
2023/08/23 00:11:01;;;;;;;3.22;2.35;;;19.20;99.90;;;19.65;100.00;101406.50;5163040;28;20121;-69
2023/08/23 00:13:33;;;;;;;4.35;2.63;;;19.20;99.90;;;19.66;100.00;101412.66;5163963;28;20077;-70
2023/08/23 00:16:05;;;;;;;3.33;2.40;;;19.20;99.90;;;19.64;100.00;101406.50;5163755;28;20530;-69
2023/08/23 00:18:37;;;;;;;2.90;2.05;;;19.20;99.90;;;19.61;100.00;101404.69;5164044;28;20046;-69
2023/08/23 00:21:11;;;;;;;2.85;2.03;;;19.10;99.90;;;19.59;100.00;101401.16;5163539;28;20376;-70
2023/08/23 00:23:43;;;;;;;2.40;2.00;;;19.10;99.90;;;19.57;100.00;101400.25;5163286;28;20083;-69
2023/08/23 00:26:15;;;;;;;3.13;2.25;;;19.10;99.90;;;19.55;100.00;101394.03;5164437;28;20060;-69
2023/08/23 00:28:47;;;;;;;2.80;2.20;;;19.10;99.90;;;19.52;100.00;101394.91;5162628;28;20042;-70
2023/08/23 00:31:20;;;;;;;3.00;2.10;;;19.10;99.90;;;19.49;100.00;101393.97;5161917;28;20505;-69
2023/08/23 00:33:52;;;;;;;4.25;2.70;;;19.10;99.90;;;19.47;100.00;101396.63;5163247;28;20106;-68
2023/08/23 00:36:25;;;;;;;3.33;2.47;;;19.00;99.90;;;19.44;100.00;101391.31;5163618;28;20093;-70
2023/08/23 00:38:57;;;;;;;2.67;2.20;;;19.00;99.90;;;19.39;100.00;101387.75;5161527;28;20046;-68
2023/08/23 00:41:30;;;;;;;3.40;2.22;;;19.00;99.90;;;19.34;100.00;101399.16;5161602;28;20484;-70
2023/08/23 00:44:03;;;;;;;3.53;2.30;;;18.90;99.90;;;19.29;100.00;101395.59;5159321;28;20062;-70
2023/08/23 00:46:35;;;;;;;3.63;2.30;;;18.90;99.90;;;19.25;100.00;101389.41;5156532;28;20046;-69
2023/08/23 00:49:08;;;;;;;3.50;2.17;;;18.80;99.90;;;19.23;100.00;101394.69;5153433;28;20136;-70
2023/08/23 00:51:43;;;;;;;3.05;2.13;;;18.80;99.90;;;19.23;100.00;101397.31;5161787;28;20056;-69
2023/08/23 00:54:16;;;;;;;3.60;2.42;;;18.80;99.90;;;19.22;100.00;101395.53;5161197;28;20050;-70
2023/08/23 00:56:49;;;;;;;3.65;2.50;;;18.80;99.90;;;19.20;100.00;101399.03;5161183;28;20413;-70
2023/08/23 00:59:22;;;;;;;3.80;2.00;;;18.80;99.90;;;19.17;100.00;101405.19;5163123;28;20106;-69
2023/08/23 01:01:54;;;;;;;3.95;2.20;;;18.70;99.90;;;19.15;100.00;101406.91;5159870;28;20141;-70
2023/08/23 01:04:27;;;;;;;3.75;2.13;;;18.70;99.90;;;19.13;100.00;101399.84;5160643;28;20058;-69
2023/08/23 01:07:11;;;;;;;2.75;2.30;;;18.70;99.90;;;19.13;100.00;101402.50;5161440;28;20474;-70
2023/08/23 01:09:53;;;;;;;4.97;2.45;;;18.70;99.90;;;19.13;100.00;101395.47;5160506;28;20301;-69
2023/08/23 01:12:34;;;;;;;3.22;2.13;;;18.70;99.90;;;19.09;100.00;101398.03;5161316;28;20421;-70
2023/08/23 01:15:11;;;;;;;3.90;2.15;;;18.70;99.90;;;19.04;100.00;101400.66;5160843;28;20525;-69
2023/08/23 01:17:44;;;;;;;3.25;2.28;;;18.60;99.90;;;19.00;100.00;101387.41;5162648;28;20089;-70
2023/08/23 01:20:18;;;;;;;3.35;2.30;;;18.60;99.90;;;18.93;100.00;101397.03;5160756;28;20058;-70
2023/08/23 01:22:55;;;;;;;3.53;2.20;;;18.50;99.90;;;18.89;100.00;101395.22;5161504;28;20577;-69
2023/08/23 01:25:29;;;;;;;3.92;2.30;;;18.50;99.90;;;18.85;100.00;101390.78;5161504;28;20078;-69
2023/08/23 01:28:01;;;;;;;3.63;2.50;;;18.40;99.90;;;18.82;100.00;101396.00;5162019;28;20061;-69
2023/08/23 01:30:33;;;;;;;3.55;2.25;;;18.40;99.90;;;18.80;100.00;101395.13;5161330;28;20104;-70
2023/08/23 01:33:14;;;;;;;3.50;2.38;;;18.40;99.90;;;18.77;100.00;101395.06;5152389;28;20597;-68
2023/08/23 01:35:54;;;;;;;3.85;2.60;;;18.40;99.90;;;18.76;100.00;101398.59;5161053;28;20150;-69
2023/08/23 01:38:28;;;;;;;2.75;2.15;;;18.40;99.90;;;18.74;100.00;101395.06;5160867;28;20158;-69
2023/08/23 01:41:03;;;;;;;2.65;1.92;;;18.30;99.90;;;18.70;100.00;101392.38;5160172;28;20042;-69
2023/08/23 01:43:35;;;;;;;4.10;2.33;;;18.30;99.90;;;18.66;100.00;101390.59;5161051;28;20442;-69
2023/08/23 01:46:08;;;;;;;3.97;2.15;;;18.30;99.90;;;18.65;100.00;101388.78;5160207;28;20050;-70
2023/08/23 01:48:40;;;;;;;2.75;2.22;;;18.30;99.90;;;18.63;100.00;101382.56;5160911;28;20529;-69
2023/08/23 01:51:12;;;;;;;3.20;2.33;;;18.20;99.90;;;18.61;100.00;101384.31;5159785;28;20109;-69
2023/08/23 01:53:46;;;;;;;3.17;2.38;;;18.20;99.90;;;18.59;100.00;101388.72;5160306;28;20097;-69
2023/08/23 01:56:19;;;;;;;3.58;2.30;;;18.20;99.90;;;18.58;100.00;101386.94;5160106;28;20074;-70
2023/08/23 01:58:51;;;;;;;3.15;2.10;;;18.20;99.90;;;18.58;100.00;101381.66;5160234;28;20042;-70
2023/08/23 02:01:24;;;;;;;3.97;2.63;;;18.20;99.90;;;18.59;100.00;101378.16;5145081;28;20045;-69
2023/08/23 02:03:56;;;;;;;3.67;2.55;;;18.20;99.90;;;18.59;100.00;101375.50;5161244;28;20104;-69
2023/08/23 02:06:28;;;;;;;4.35;2.75;;;18.20;99.90;;;18.60;100.00;101374.63;5160629;28;20449;-69
2023/08/23 02:09:00;;;;;;;5.07;2.42;;;18.20;99.90;;;18.57;100.00;101371.94;5159866;28;20137;-69
2023/08/23 02:11:36;;;;;;;4.95;2.22;;;18.20;99.90;;;18.57;100.00;101381.63;5161453;28;20066;-69
2023/08/23 02:14:08;;;;;;;3.83;2.45;;;18.20;99.90;;;18.52;100.00;101371.03;5159892;28;20046;-70
2023/08/23 02:16:40;;;;;;;3.08;2.35;;;18.10;99.90;;;18.51;100.00;101374.50;5160217;28;20464;-69
2023/08/23 02:19:13;;;;;;;4.00;2.70;;;18.10;99.90;;;18.50;100.00;101380.66;5160724;28;20053;-70
2023/08/23 02:21:45;;;;;;;4.18;2.80;;;18.10;99.90;;;18.50;100.00;101392.97;5159777;28;20047;-69
2023/08/23 02:24:19;;;;;;;3.00;2.67;;;18.10;99.90;;;18.46;100.00;101380.63;5159283;28;20134;-70
2023/08/23 02:26:52;;;;;;;3.67;2.75;;;18.10;99.90;;;18.42;100.00;101382.34;5160071;28;20043;-70
2023/08/23 02:29:24;;;;;;;3.60;2.33;;;18.10;99.90;;;18.40;100.00;101379.69;5161139;28;20042;-69
2023/08/23 02:31:56;;;;;;;2.78;2.08;;;18.00;99.90;;;18.39;100.00;101383.19;5152295;28;20050;-71
2023/08/23 02:34:29;;;;;;;3.72;2.60;;;18.00;99.90;;;18.37;100.00;101379.63;5161524;28;20057;-70
2023/08/23 02:37:01;;;;;;;3.03;2.20;;;18.00;99.90;;;18.33;100.00;101382.25;5159602;28;20097;-69
2023/08/23 02:39:33;;;;;;;2.65;2.08;;;17.90;99.90;;;18.30;100.00;101382.19;5159738;28;20045;-69
2023/08/23 02:42:07;;;;;;;4.32;2.50;;;17.90;99.90;;;18.27;100.00;101392.72;5160370;28;20046;-70
2023/08/23 02:44:39;;;;;;;2.83;2.25;;;17.90;99.90;;;18.25;100.00;101383.88;5159675;28;20565;-69
2023/08/23 02:47:12;;;;;;;2.83;2.50;;;17.90;99.90;;;18.24;100.00;101390.00;5160728;28;20046;-70
2023/08/23 02:49:44;;;;;;;3.65;2.60;;;17.90;99.90;;;18.20;100.00;101380.31;5161052;28;20533;-69
2023/08/23 02:52:16;;;;;;;3.90;2.90;;;17.80;99.90;;;18.18;100.00;101381.16;5158893;28;20134;-69
2023/08/23 02:54:48;;;;;;;2.60;2.20;;;17.80;99.90;;;18.15;100.00;101373.22;5159486;28;20141;-70
2023/08/23 02:57:21;;;;;;;4.03;2.50;;;17.80;99.90;;;18.13;100.00;101369.69;5159428;28;20506;-69
2023/08/23 02:59:54;;;;;;;2.88;2.38;;;17.70;99.90;;;18.11;100.00;101363.47;5160948;28;20416;-70
2023/08/23 03:02:26;;;;;;;2.80;2.22;;;17.80;99.90;;;18.12;100.00;101365.25;5160224;28;20042;-69
2023/08/23 03:04:58;;;;;;;3.28;2.45;;;17.70;99.90;;;18.11;100.00;101360.84;5159086;28;20042;-69
2023/08/23 03:07:30;;;;;;;3.45;2.47;;;17.80;99.90;;;18.10;100.00;101359.06;5159915;28;20108;-70
2023/08/23 03:10:03;;;;;;;5.05;2.65;;;17.70;99.90;;;18.08;100.00;101350.25;5159148;28;20149;-69
2023/08/23 03:12:36;;;;;;;3.10;2.53;;;17.70;99.90;;;18.05;100.00;101358.13;5159668;28;20513;-69
2023/08/23 03:15:10;;;;;;;2.95;2.50;;;17.70;99.90;;;18.04;100.00;101363.38;5159090;28;20485;-68
2023/08/23 03:17:42;;;;;;;2.70;2.25;;;17.70;99.90;;;18.00;100.00;101351.91;5159267;28;20561;-70
2023/08/23 03:20:15;;;;;;;3.75;2.47;;;17.60;99.90;;;17.99;100.00;101355.38;5150919;28;20528;-70
2023/08/23 03:22:47;;;;;;;4.18;2.83;;;17.60;99.90;;;18.01;100.00;101353.69;5159439;28;20132;-69
2023/08/23 03:25:19;;;;;;;4.22;2.70;;;17.60;99.90;;;18.04;100.00;101358.97;5158900;28;20080;-70
2023/08/23 03:27:53;;;;;;;4.18;2.80;;;17.70;99.90;;;18.05;100.00;101360.75;5159423;28;20064;-70
2023/08/23 03:30:25;;;;;;;2.80;2.50;;;17.70;99.90;;;18.03;100.00;101354.56;5158634;28;20505;-70
2023/08/23 03:32:57;;;;;;;4.63;2.75;;;17.70;99.90;;;18.02;100.00;101363.38;5161482;28;20120;-69
2023/08/23 03:35:30;;;;;;;3.75;2.58;;;17.70;99.90;;;18.03;100.00;101361.59;5155461;28;20046;-69
2023/08/23 03:38:03;;;;;;;3.00;2.70;;;17.70;99.90;;;18.01;100.00;101358.97;5162762;28;20039;-70
2023/08/23 03:40:36;;;;;;;3.83;2.60;;;17.70;99.90;;;17.99;100.00;101371.22;5162736;28;20053;-70
2023/08/23 03:43:10;;;;;;;4.22;2.60;;;17.60;99.90;;;17.98;100.00;101374.72;5154743;28;20050;-70
2023/08/23 03:45:47;;;;;;;4.22;2.55;;;17.60;99.90;;;17.97;100.00;101378.22;5163543;28;20657;-69
2023/08/23 03:48:19;;;;;;;4.18;2.60;;;17.60;99.90;;;17.94;100.00;101359.75;5162571;28;21388;-70
2023/08/23 03:50:51;;;;;;;3.83;2.80;;;17.60;99.90;;;17.90;100.00;101371.09;5163137;28;20785;-69
2023/08/23 03:53:24;;;;;;;3.70;2.78;;;17.60;99.90;;;17.89;100.00;101374.63;5162197;28;20074;-69
2023/08/23 03:55:56;;;;;;;3.88;2.83;;;17.60;99.90;;;17.84;100.00;101376.28;5164456;28;20042;-69
2023/08/23 03:58:29;;;;;;;4.03;2.90;;;17.50;99.90;;;17.79;100.00;101364.78;5162841;28;20054;-70
2023/08/23 04:01:02;;;;;;;3.33;2.67;;;17.50;99.90;;;17.75;100.00;101370.91;5162062;28;20058;-70
2023/08/23 04:03:34;;;;;;;3.08;2.58;;;17.40;99.90;;;17.71;100.00;101366.41;5162404;28;20129;-69
2023/08/23 04:06:06;;;;;;;3.42;2.60;;;17.40;99.90;;;17.69;100.00;101376.03;5161779;28;20361;-69
2023/08/23 04:08:38;;;;;;;3.58;2.70;;;17.30;99.90;;;17.67;100.00;101367.19;5155510;28;20410;-69
2023/08/23 04:11:10;;;;;;;3.50;2.28;;;17.30;99.90;;;17.66;100.00;101362.78;5161812;28;20047;-69
2023/08/23 04:13:44;;;;;;;4.38;2.70;;;17.30;99.90;;;17.64;100.00;101358.41;5163991;28;20049;-69
2023/08/23 04:16:17;;;;;;;4.32;2.83;;;17.30;99.90;;;17.64;100.00;101357.50;5161862;28;20050;-69
2023/08/23 04:18:49;;;;;;;4.15;2.92;;;17.30;99.90;;;17.63;100.00;101351.34;5162287;28;20066;-70
2023/08/23 04:21:21;;;;;;;4.28;2.70;;;17.30;99.90;;;17.64;100.00;101362.78;5162092;28;20055;-70
2023/08/23 04:23:53;;;;;;;3.75;2.63;;;17.30;99.90;;;17.62;100.00;101365.41;5162513;28;20141;-70
2023/08/23 04:26:26;;;;;;;5.22;2.90;;;17.30;99.90;;;17.64;100.00;101365.41;5161960;28;20050;-68
2023/08/23 04:28:59;;;;;;;5.30;2.72;;;17.30;99.90;;;17.63;100.00;101361.91;5162271;28;20043;-70
2023/08/23 04:31:31;;;;;;;4.22;2.72;;;17.30;99.90;;;17.63;100.00;101361.91;5161716;28;20050;-69
2023/08/23 04:34:12;;;;;;;4.95;3.58;;;17.30;99.90;;;17.62;100.00;101360.13;5161468;28;20050;-69
2023/08/23 04:36:44;;;;;;;3.72;3.00;;;17.30;99.90;;;17.64;100.00;101363.66;5161954;28;20271;-69
2023/08/23 04:39:17;;;;;;;3.75;2.80;;;17.30;99.90;;;17.66;100.00;101365.44;5161624;28;20266;-70
2023/08/23 04:41:50;;;;;;;5.43;2.80;;;17.30;99.90;;;17.66;100.00;101366.31;5162105;28;20074;-70
2023/08/23 04:44:23;;;;;;;4.88;2.95;;;17.30;99.90;;;17.63;100.00;101361.91;5161726;28;20076;-69
2023/08/23 04:46:55;;;;;;;4.07;2.83;;;17.30;99.90;;;17.61;100.00;101368.91;5161873;28;20054;-70
2023/08/23 04:49:30;;;;;;;4.68;3.03;;;17.20;99.90;;;17.58;100.00;101368.84;5161257;28;20045;-70
2023/08/23 04:52:02;;;;;;;2.80;2.33;;;17.30;99.90;;;17.56;100.00;101365.31;5161730;28;20148;-70
2023/08/23 04:54:34;;;;;;;4.28;2.78;;;17.30;99.90;;;17.60;100.00;101382.03;5161966;28;20042;-70
2023/08/23 04:57:06;;;;;;;3.03;2.55;;;17.30;99.90;;;17.60;100.00;101380.31;5161485;28;20145;-69
2023/08/23 04:59:40;;;;;;;7.55;2.92;;;17.30;99.90;;;17.61;100.00;101383.84;5162838;28;20065;-70
2023/08/23 05:02:13;;;;;;;3.65;2.95;;;17.30;99.90;;;17.62;100.00;101377.69;5160486;28;20046;-69
2023/08/23 05:04:47;;;;;;;3.90;2.85;;;17.30;99.90;;;17.64;100.00;101384.75;5161701;28;20053;-68
2023/08/23 05:07:19;;;;;;;3.58;2.60;;;17.30;99.90;;;17.70;100.00;101385.72;5161249;28;20058;-69
2023/08/23 05:09:51;;;;;;;4.10;2.72;;;17.30;99.90;;;17.77;100.00;101379.72;5161229;28;20038;-69
2023/08/23 05:12:23;;;;;;;4.03;3.10;;;17.40;99.90;;;17.86;100.00;101385.09;5160318;28;20479;-67
2023/08/23 05:14:57;;;;;;;4.18;3.00;;;17.50;99.90;;;17.91;100.00;101386.06;5161338;28;20038;-68
2023/08/23 05:17:29;;;;;;;5.38;4.10;;;17.50;99.90;;;18.02;100.00;101384.47;5161102;28;20097;-69
2023/08/23 05:20:01;;;;;;;6.95;3.65;;;17.60;99.90;;;18.22;100.00;101389.13;5153842;28;20046;-68
2023/08/23 05:22:33;;;;;;;5.03;3.22;;;17.80;99.90;;;18.79;100.00;101394.25;5161680;28;20042;-69
2023/08/23 05:25:06;;;;;;;4.50;2.95;;;18.10;99.90;;;19.81;100.00;101396.00;5161051;28;20081;-70
2023/08/23 05:27:38;;;;;;;3.67;2.83;;;18.80;99.90;;;20.91;100.00;101396.50;5145711;28;20042;-68
2023/08/23 05:30:12;;;;;;;4.22;2.92;;;19.70;99.90;;;21.92;100.00;101393.00;5160919;28;20125;-68
2023/08/23 05:32:44;;;;;;;;;;;20.60;99.90;;;22.73;100.00;101402.41;5162666;28;20112;-72
2023/08/23 05:35:17;;;;;;;3.25;2.53;;;21.30;99.90;;;23.42;100.00;101397.53;5152535;28;19932;-60
2023/08/23 05:37:49;;;;;;;3.67;2.42;;;22.00;99.90;;;24.07;100.00;101397.81;5160994;28;20093;-61
2023/08/23 05:40:22;;;;;;;3.17;2.33;;;22.70;99.90;;;24.68;98.43;101401.50;5160493;28;20474;-61
2023/08/23 05:42:54;;;;;;;4.07;2.22;;;23.30;99.90;;;25.26;94.87;101398.88;5160582;28;20141;-62
2023/08/23 05:45:27;;;;;;;5.68;2.88;;;23.80;99.90;;;25.59;92.41;101391.22;5160691;28;20153;-61
2023/08/23 05:48:00;;;;;;;3.35;2.20;;;24.30;99.90;;;25.88;90.49;101388.03;5162099;28;20038;-60
2023/08/23 05:50:32;;;;;;;3.80;2.35;;;24.60;99.90;;;26.24;89.03;101395.31;5160455;28;20050;-61
2023/08/23 05:53:09;;;;;;;3.35;2.80;;;24.90;99.90;;;26.62;87.43;101393.66;5160524;28;20054;-60
2023/08/23 05:55:41;;;;;;;4.75;2.50;;;25.30;99.30;;;26.91;85.82;101392.09;5162004;28;20042;-62
2023/08/23 05:58:13;;;;;;;2.22;2.00;;;25.60;98.60;;;27.13;84.69;101397.88;5153420;28;20382;-60
2023/08/23 06:00:49;;;;;;;4.75;2.40;;;25.80;98.00;;;27.34;83.81;101393.78;5154033;28;20038;-61
2023/08/23 06:03:21;;;;;;;3.92;2.28;;;26.10;97.40;;;27.49;83.20;101402.28;5161508;28;20074;-61
2023/08/23 06:05:55;;;;;;;3.65;2.47;;;26.30;96.90;;;27.61;82.14;101402.91;5154336;28;20053;-61
2023/08/23 06:08:27;;;;;;;4.55;2.33;;;26.40;96.30;;;27.40;82.96;101401.66;5160978;28;20073;-60
2023/08/23 06:10:59;;;;;;;4.95;2.28;;;26.40;96.10;;;27.49;82.79;101396.94;5155241;28;20042;-60
2023/08/23 06:13:31;;;;;;;4.22;2.45;;;26.40;96.00;;;27.73;82.15;101408.84;5159985;28;20063;-61
2023/08/23 06:16:05;;;;;;;4.53;2.55;;;26.60;95.70;;;27.57;81.43;101413.66;5146796;28;20047;-65
2023/08/23 06:18:37;;;;;;;3.85;2.40;;;26.60;95.20;;;26.78;83.22;101411.09;5160631;28;20062;-65
2023/08/23 06:21:09;;;;;;;3.30;2.35;;;26.20;95.40;;;25.89;86.06;101409.38;5153292;28;20122;-64
2023/08/23 06:23:43;;;;;;;3.55;2.78;;;25.50;95.80;;;25.17;89.38;101407.94;5160935;28;20050;-62
2023/08/23 06:26:15;;;;;;;4.75;2.65;;;24.80;96.70;;;24.60;92.16;101407.84;5160997;28;20049;-63
2023/08/23 06:28:47;;;;;;;5.32;2.78;;;24.30;97.90;;;24.23;94.92;101402.03;5161319;28;20038;-62
2023/08/23 06:31:21;;;;;;;6.10;2.95;;;23.90;98.90;;;23.67;97.59;101397.31;5152264;28;20046;-62
2023/08/23 06:33:54;;;;;;;3.95;2.70;;;23.50;99.80;;;23.26;99.64;101401.19;5161079;28;20104;-60
2023/08/23 06:36:26;;;;;;;3.65;2.63;;;23.10;99.90;;;23.06;100.00;101398.69;5160815;28;20417;-61
2023/08/23 06:38:58;;;;;;;5.30;2.90;;;22.80;99.90;;;22.97;100.00;101404.97;5160861;28;20034;-61
2023/08/23 06:41:30;;;;;;;6.47;2.78;;;22.60;99.90;;;22.91;100.00;101396.16;5152564;28;20042;-61
2023/08/23 06:44:03;;;;;;;5.10;3.00;;;22.50;99.90;;;22.85;100.00;101394.38;5160934;28;20067;-62
2023/08/23 06:46:36;;;;;;;5.13;2.95;;;22.40;99.90;;;22.87;100.00;101389.97;5160082;28;20042;-61
2023/08/23 06:49:08;;;;;;;3.90;3.00;;;22.30;99.90;;;22.97;100.00;101394.34;5149040;28;20490;-61
2023/08/23 06:51:42;;;;;;;4.60;2.70;;;22.40;99.90;;;23.06;100.00;101381.88;5159999;28;20117;-60
2023/08/23 06:54:14;;;;;;;4.53;2.83;;;22.50;99.90;;;23.18;100.00;101381.78;5156623;28;20146;-60
2023/08/23 06:56:47;;;;;;;4.00;2.95;;;22.50;99.90;;;23.28;100.00;101388.81;5144056;28;20042;-59
2023/08/23 06:59:19;;;;;;;5.07;3.00;;;22.60;99.90;;;23.26;100.00;101396.75;5160164;28;20410;-58
2023/08/23 07:01:53;;;;;;;4.53;2.80;;;22.70;99.90;;;23.27;100.00;101398.53;5160600;28;20476;-58
2023/08/23 07:04:25;;;;;;;4.65;3.25;;;22.70;99.90;;;23.32;100.00;101390.50;5160281;28;20129;-59
2023/08/23 07:06:57;;;;;;;6.78;3.83;;;22.70;99.90;;;23.34;100.00;101388.72;5153515;28;20046;-58
2023/08/23 07:09:29;;;;;;;5.93;3.45;;;22.70;99.90;;;23.42;100.00;101391.34;5157055;28;20047;-56
2023/08/23 07:12:01;;;;;;;4.00;2.40;;;22.80;99.90;;;23.59;100.00;101392.06;5157436;28;20046;-57
2023/08/23 07:14:33;;;;;;;5.78;2.70;;;22.90;99.90;;;23.73;100.00;101402.59;5164703;28;20117;-56
2023/08/23 07:17:07;;;;;;;3.35;2.53;;;23.00;99.90;;;23.85;100.00;101397.16;5165182;28;20049;-55
2023/08/23 07:19:39;;;;;;;5.55;3.03;;;23.10;99.90;;;23.95;100.00;101401.50;5164413;28;20042;-56
2023/08/23 07:22:11;;;;;;;4.72;2.90;;;23.20;99.90;;;24.06;100.00;101398.69;5165089;28;20074;-56
2023/08/23 07:24:44;;;;;;;4.93;2.88;;;23.30;99.90;;;24.17;100.00;101396.78;5156668;28;20528;-56
2023/08/23 07:27:16;;;;;;;4.30;2.63;;;23.40;99.90;;;24.28;100.00;101399.34;5157268;28;20050;-58
2023/08/23 07:29:48;;;;;;;3.72;2.65;;;23.50;99.90;;;24.34;99.67;101407.28;5161019;28;20066;-58
2023/08/23 07:32:21;;;;;;;4.57;2.90;;;23.50;99.90;;;24.46;99.53;101407.16;5162060;28;20047;-55
2023/08/23 07:34:53;;;;;;;3.22;2.63;;;23.70;99.90;;;24.59;99.16;101413.19;5153057;28;20061;-57
2023/08/23 07:37:25;;;;;;;6.07;3.05;;;23.80;99.90;;;24.74;98.40;101412.09;5161607;28;20050;-56
2023/08/23 07:39:58;;;;;;;3.22;2.30;;;23.90;99.90;;;24.83;97.71;101414.63;5164543;28;20287;-56
2023/08/23 07:42:30;;;;;;;4.47;2.75;;;24.00;99.90;;;24.96;97.97;101424.19;5164109;28;20057;-57
2023/08/23 07:45:02;;;;;;;4.65;2.60;;;24.10;99.90;;;25.09;97.29;101425.81;5164673;28;20058;-57
2023/08/23 07:47:36;;;;;;;4.10;2.60;;;24.20;99.90;;;25.25;97.04;101428.25;5156315;28;20129;-57
2023/08/23 07:50:09;;;;;;;3.45;2.50;;;24.30;99.90;;;25.46;97.29;101435.03;5150088;28;20042;-57
2023/08/23 07:52:41;;;;;;;4.72;2.78;;;24.50;99.90;;;25.66;96.15;101427.56;5159754;28;20470;-56
2023/08/23 07:55:13;;;;;;;4.05;2.70;;;24.70;99.90;;;25.88;94.93;101420.06;5159577;28;20386;-56
2023/08/23 07:57:45;;;;;;;4.35;2.67;;;24.80;99.90;;;26.00;93.61;101427.84;5160593;28;20406;-56
2023/08/23 08:00:20;;;;;;;6.03;3.00;;;25.00;99.90;;;26.17;92.91;101428.41;5152076;28;20060;-56
2023/08/23 08:02:53;;;;;;;5.32;2.47;;;25.10;99.90;;;26.34;91.25;101427.19;5145194;28;20130;-57
2023/08/23 08:05:25;;;;;;;3.75;2.67;;;25.20;99.60;;;26.60;90.71;101435.56;5157423;28;20050;-56
2023/08/23 08:07:57;;;;;;;5.80;2.80;;;25.40;99.40;;;26.89;89.70;101442.09;5147190;28;20046;-58
2023/08/23 08:10:30;;;;;;;4.47;2.70;;;25.60;99.10;;;27.17;89.44;101443.22;5160308;28;20034;-56
2023/08/23 08:13:02;;;;;;;4.85;2.40;;;25.80;99.10;;;27.53;88.20;101441.47;5151439;28;20129;-57
2023/08/23 08:15:34;;;;;;;4.43;2.20;;;26.00;98.80;;;27.97;87.50;101442.09;5152677;28;20113;-61
2023/08/23 08:18:08;;;;;;;3.72;2.17;;;26.20;98.70;;;28.49;85.71;101450.50;5157514;28;20063;-56
2023/08/23 08:20:40;;;;;;;3.30;2.55;;;26.50;98.30;;;29.09;82.93;101455.00;5157127;28;20050;-57
2023/08/23 08:23:12;;;;;;;3.72;2.28;;;26.80;97.70;;;29.68;80.26;101444.13;5148060;28;20054;-57
2023/08/23 08:25:44;;;;;;;3.70;2.08;;;27.10;96.90;;;30.34;78.65;101442.66;5146198;28;20042;-57
2023/08/23 08:28:16;;;;;;;4.50;2.38;;;27.40;96.70;;;30.93;76.73;101455.66;5148141;28;20051;-61
2023/08/23 08:30:49;;;;;;;7.00;2.45;;;27.70;96.20;;;31.91;74.25;101454.31;5139059;28;20105;-57
2023/08/23 08:33:22;;;;;;;4.25;2.10;;;28.20;95.90;;;32.87;70.49;101451.78;5144407;28;20039;-58
2023/08/23 08:35:54;;;;;;;6.13;3.60;;;28.90;94.50;;;33.65;66.88;101458.75;5144984;28;20034;-58
2023/08/23 08:38:26;;;;;;;7.32;3.65;;;29.60;92.70;;;33.44;65.04;101457.97;5145143;28;20050;-58
2023/08/23 08:40:59;;;;;;;4.07;2.53;;;29.80;90.50;;;34.12;63.94;101456.28;5158802;28;20101;-57
2023/08/23 08:43:32;;;;;;;3.28;1.98;;;30.50;89.10;;;34.92;62.62;101462.78;5160781;28;20113;-60
2023/08/23 08:46:06;;;;;;;;;;;31.30;86.90;;;35.36;60.62;101452.09;5146051;28;20054;-62
2023/08/23 08:48:39;;;;;;;5.72;2.15;;;31.80;83.10;;;36.03;59.90;101452.63;5139097;28;19930;-57
2023/08/23 08:51:19;;;;;;;4.95;1.88;;;32.40;81.90;;;36.59;57.93;101456.38;5148540;28;20053;-58
2023/08/23 08:53:52;;;;;;;5.20;2.28;;;32.90;79.10;;;37.07;57.03;101463.19;5150810;28;20553;-57
2023/08/23 08:56:24;;;;;;;;;;;33.30;77.50;;;37.39;55.68;101460.19;5146322;28;20059;-58
2023/08/23 08:58:57;;;;;;;5.30;1.77;;;33.70;75.30;;;37.67;53.67;101461.91;5158459;28;19968;-57
2023/08/23 09:01:33;;;;;;;2.88;1.45;;;33.90;73.00;;;37.83;52.59;101457.19;5151182;28;20050;-58
2023/08/23 09:04:07;;;;;;;4.00;1.70;;;34.10;70.40;;;37.95;52.01;101450.00;5162896;28;20050;-62
2023/08/23 09:06:41;;;;;;;2.45;1.50;;;34.30;69.10;;;37.64;51.53;101453.97;5159479;28;20046;-58
2023/08/23 09:09:14;;;;;;;3.22;1.55;;;34.10;67.50;;;37.16;51.74;101450.81;5156150;28;20050;-57
2023/08/23 09:11:46;;;;;;;3.55;1.70;;;34.00;67.00;;;36.40;52.27;101441.25;5160912;28;20489;-57
2023/08/23 09:14:21;;;;;;;2.28;1.40;;;33.60;66.50;;;35.98;53.87;101441.19;5154645;28;20046;-57
2023/08/23 09:16:53;;;;;;;3.38;1.50;;;33.40;67.80;;;35.58;55.94;101441.72;5162270;28;20058;-56
2023/08/23 09:19:26;;;;;;;2.63;1.55;;;33.20;68.90;;;35.25;55.96;101443.69;5153198;28;20498;-58
2023/08/23 09:21:58;;;;;;;;;;;33.10;69.20;;;34.70;56.54;101431.47;5147793;28;20117;-58
2023/08/23 09:24:31;;;;;;;3.58;1.73;;;32.80;68.60;;;34.16;57.28;101435.34;5151186;28;19928;-57
2023/08/23 09:27:03;;;;;;;2.38;1.60;;;32.60;69.10;;;33.44;58.99;101431.81;5129873;28;20053;-56
2023/08/23 09:29:35;;;;;;;2.80;1.60;;;32.10;69.80;;;32.85;60.58;101432.03;5155772;28;20042;-56
2023/08/23 09:32:08;;;;;;;2.80;1.60;;;31.70;70.80;;;32.42;62.12;101431.38;5142628;28;20059;-56
2023/08/23 09:34:41;;;;;;;2.28;1.50;;;31.40;72.10;;;32.18;62.87;101419.84;5157927;28;20043;-56
2023/08/23 09:37:13;;;;;;;2.70;1.30;;;31.10;72.70;;;31.93;61.04;101425.47;5148430;28;20498;-57
2023/08/23 09:39:46;;;;;;;2.25;1.33;;;30.80;71.30;;;31.78;62.19;101418.94;5153898;28;20409;-56
2023/08/23 09:42:18;;;;;;;2.47;1.20;;;30.70;72.20;;;31.71;63.68;101413.84;5145419;28;20079;-59
2023/08/23 09:44:52;;;;;;;1.67;1.23;;;30.60;73.50;;;31.44;63.81;101408.72;5145796;28;20042;-57
2023/08/23 09:47:26;;;;;;;;;;;30.40;73.50;;;31.18;65.03;101408.91;5149035;28;20050;-57
2023/08/23 09:50:01;;;;;;;2.88;1.50;;;30.10;74.50;;;31.10;66.60;101416.41;5152682;28;19933;-62
2023/08/23 09:52:35;;;;;;;8.77;4.32;;;30.00;76.50;;;31.12;65.98;101401.06;5161110;28;20117;-64
2023/08/23 09:55:11;;;;;;;;;;;30.00;75.70;;;31.14;66.23;101401.88;5161400;28;20259;-60
2023/08/23 09:57:44;;;;;;;11.18;5.78;;;30.00;76.10;;;31.28;66.68;101405.78;5143742;28;20201;-56
2023/08/23 10:00:17;;;;;;;7.90;4.15;;;30.10;76.90;;;31.31;64.50;101399.41;5142589;28;20046;-57
2023/08/23 10:02:50;;;;;;;5.00;2.08;;;30.10;75.10;;;31.23;63.40;101406.88;5150315;28;20049;-59
2023/08/23 10:05:23;;;;;;;3.38;1.77;;;30.10;73.90;;;31.28;64.15;101396.81;5149619;28;20093;-59
2023/08/23 10:07:57;;;;;;;2.97;1.30;;;30.10;74.30;;;31.41;65.27;101389.97;5150270;28;20501;-61
2023/08/23 10:10:32;;;;;;;2.85;1.83;;;30.20;75.60;;;31.42;63.92;101391.72;5157981;28;20199;-59
2023/08/23 10:13:06;;;;;;;2.05;1.30;;;30.30;74.50;;;31.38;64.08;101384.72;5161921;28;20057;-57
2023/08/23 10:15:41;;;;;;;1.67;1.42;;;30.20;74.20;;;31.34;65.16;101378.59;5159647;28;20150;-55
2023/08/23 10:18:14;;;;;;;2.63;1.45;;;30.20;75.10;;;31.35;65.92;101379.47;5156010;28;20497;-56
2023/08/23 10:20:53;;;;;;;3.25;1.42;;;30.20;76.70;;;31.33;65.61;101381.34;5159138;28;20117;-56
2023/08/23 10:23:25;;;;;;;3.58;1.70;;;30.20;75.70;;;31.25;65.27;101375.41;5137298;28;20409;-59
2023/08/23 10:25:57;;;;;;;4.53;1.65;;;30.20;75.40;;;31.25;64.80;101376.28;5154110;28;20494;-55
2023/08/23 10:28:29;;;;;;;2.58;1.50;;;30.10;75.00;;;31.38;66.13;101378.47;5162297;28;20084;-60
2023/08/23 10:31:01;;;;;;;3.00;1.50;;;30.20;76.10;;;31.57;66.00;101374.03;5153166;28;20041;-57
2023/08/23 10:33:34;;;;;;;6.78;3.25;;;30.40;76.30;;;31.74;66.02;101379.53;5161613;28;20512;-57